sensor_id;sensor_type;location;lat;lon;timestamp;P1;durP1;ratioP1;P2;durP2;ratioP2
19651;SDS011;9974;52.146;14.668;2022-09-23T00:01:07;5.17;;;2.30;;
19651;SDS011;9974;52.146;14.668;2022-09-23T00:03:35;3.80;;;2.40;;
19651;SDS011;9974;52.146;14.668;2022-09-23T00:06:07;3.50;;;1.80;;
19651;SDS011;9974;52.146;14.668;2022-09-23T00:08:35;3.97;;;2.10;;
19651;SDS011;9974;52.146;14.668;2022-09-23T00:11:03;2.50;;;1.90;;
19651;SDS011;9974;52.146;14.668;2022-09-23T00:13:31;2.67;;;1.87;;
19651;SDS011;9974;52.146;14.668;2022-09-23T00:16:00;3.17;;;2.13;;
19651;SDS011;9974;52.146;14.668;2022-09-23T00:18:31;3.37;;;2.00;;
19651;SDS011;9974;52.146;14.668;2022-09-23T00:21:01;6.63;;;2.50;;
19651;SDS011;9974;52.146;14.668;2022-09-23T00:23:33;5.30;;;2.77;;
19651;SDS011;9974;52.146;14.668;2022-09-23T00:25:59;4.27;;;2.03;;
19651;SDS011;9974;52.146;14.668;2022-09-23T00:28:26;4.13;;;2.30;;
19651;SDS011;9974;52.146;14.668;2022-09-23T00:30:52;3.77;;;2.53;;
19651;SDS011;9974;52.146;14.668;2022-09-23T00:33:18;6.37;;;3.37;;
19651;SDS011;9974;52.146;14.668;2022-09-23T00:35:44;9.23;;;4.37;;
19651;SDS011;9974;52.146;14.668;2022-09-23T00:38:11;8.03;;;3.97;;
19651;SDS011;9974;52.146;14.668;2022-09-23T00:40:44;15.00;;;5.00;;
19651;SDS011;9974;52.146;14.668;2022-09-23T00:43:11;12.27;;;4.90;;
19651;SDS011;9974;52.146;14.668;2022-09-23T00:45:39;13.33;;;4.60;;
19651;SDS011;9974;52.146;14.668;2022-09-23T00:48:13;29.93;;;4.80;;
19651;SDS011;9974;52.146;14.668;2022-09-23T00:50:42;20.50;;;4.97;;
19651;SDS011;9974;52.146;14.668;2022-09-23T00:53:14;16.27;;;4.80;;
19651;SDS011;9974;52.146;14.668;2022-09-23T00:55:48;11.97;;;4.97;;
19651;SDS011;9974;52.146;14.668;2022-09-23T00:58:22;4.63;;;3.33;;
19651;SDS011;9974;52.146;14.668;2022-09-23T01:00:55;6.90;;;3.70;;
19651;SDS011;9974;52.146;14.668;2022-09-23T01:03:24;11.00;;;4.00;;
19651;SDS011;9974;52.146;14.668;2022-09-23T01:05:50;8.93;;;3.93;;
19651;SDS011;9974;52.146;14.668;2022-09-23T01:08:17;15.97;;;4.10;;
19651;SDS011;9974;52.146;14.668;2022-09-23T01:13:42;9.50;;;3.40;;
19651;SDS011;9974;52.146;14.668;2022-09-23T01:19:00;6.33;;;3.77;;
19651;SDS011;9974;52.146;14.668;2022-09-23T01:22:22;5.13;;;3.23;;
19651;SDS011;9974;52.146;14.668;2022-09-23T01:24:58;6.37;;;2.77;;
19651;SDS011;9974;52.146;14.668;2022-09-23T01:28:36;4.17;;;2.63;;
19651;SDS011;9974;52.146;14.668;2022-09-23T01:31:29;3.53;;;2.50;;
19651;SDS011;9974;52.146;14.668;2022-09-23T01:37:22;2.67;;;1.90;;
19651;SDS011;9974;52.146;14.668;2022-09-23T01:39:58;2.77;;;1.80;;
19651;SDS011;9974;52.146;14.668;2022-09-23T01:42:41;4.37;;;2.13;;
19651;SDS011;9974;52.146;14.668;2022-09-23T01:47:56;5.30;;;2.37;;
19651;SDS011;9974;52.146;14.668;2022-09-23T01:50:34;4.33;;;2.80;;
19651;SDS011;9974;52.146;14.668;2022-09-23T01:56:22;6.30;;;2.77;;
19651;SDS011;9974;52.146;14.668;2022-09-23T01:58:57;5.53;;;2.80;;
19651;SDS011;9974;52.146;14.668;2022-09-23T02:01:34;4.50;;;2.50;;
19651;SDS011;9974;52.146;14.668;2022-09-23T02:05:06;10.53;;;5.67;;
19651;SDS011;9974;52.146;14.668;2022-09-23T02:07:38;15.13;;;6.37;;
19651;SDS011;9974;52.146;14.668;2022-09-23T02:10:19;13.43;;;6.40;;
19651;SDS011;9974;52.146;14.668;2022-09-23T02:12:52;12.17;;;6.07;;
19651;SDS011;9974;52.146;14.668;2022-09-23T02:15:24;9.33;;;6.43;;
19651;SDS011;9974;52.146;14.668;2022-09-23T02:18:02;11.33;;;6.73;;
19651;SDS011;9974;52.146;14.668;2022-09-23T02:20:39;9.10;;;5.27;;
19651;SDS011;9974;52.146;14.668;2022-09-23T02:23:07;11.87;;;6.33;;
19651;SDS011;9974;52.146;14.668;2022-09-23T02:29:16;13.57;;;6.53;;
19651;SDS011;9974;52.146;14.668;2022-09-23T02:31:36;9.77;;;6.13;;
19651;SDS011;9974;52.146;14.668;2022-09-23T02:37:25;12.23;;;6.13;;
19651;SDS011;9974;52.146;14.668;2022-09-23T02:42:54;10.30;;;5.63;;
19651;SDS011;9974;52.146;14.668;2022-09-23T02:45:46;8.80;;;5.30;;
19651;SDS011;9974;52.146;14.668;2022-09-23T02:48:17;9.80;;;4.50;;
19651;SDS011;9974;52.146;14.668;2022-09-23T02:50:58;10.27;;;6.00;;
19651;SDS011;9974;52.146;14.668;2022-09-23T02:53:27;10.97;;;5.87;;
19651;SDS011;9974;52.146;14.668;2022-09-23T02:55:57;9.47;;;6.07;;
19651;SDS011;9974;52.146;14.668;2022-09-23T02:58:23;9.43;;;6.07;;
19651;SDS011;9974;52.146;14.668;2022-09-23T03:03:37;10.87;;;6.33;;
19651;SDS011;9974;52.146;14.668;2022-09-23T03:06:27;11.30;;;6.37;;
19651;SDS011;9974;52.146;14.668;2022-09-23T03:09:03;11.20;;;6.47;;
19651;SDS011;9974;52.146;14.668;2022-09-23T03:11:36;9.30;;;6.37;;
19651;SDS011;9974;52.146;14.668;2022-09-23T03:17:01;9.83;;;6.23;;
19651;SDS011;9974;52.146;14.668;2022-09-23T03:19:35;12.07;;;7.00;;
19651;SDS011;9974;52.146;14.668;2022-09-23T03:22:11;10.43;;;6.53;;
19651;SDS011;9974;52.146;14.668;2022-09-23T03:24:45;12.90;;;7.10;;
19651;SDS011;9974;52.146;14.668;2022-09-23T03:27:17;9.10;;;6.33;;
19651;SDS011;9974;52.146;14.668;2022-09-23T03:29:47;8.13;;;4.87;;
19651;SDS011;9974;52.146;14.668;2022-09-23T03:32:16;9.50;;;6.07;;
19651;SDS011;9974;52.146;14.668;2022-09-23T03:34:47;7.60;;;4.93;;
19651;SDS011;9974;52.146;14.668;2022-09-23T03:37:20;8.60;;;4.30;;
19651;SDS011;9974;52.146;14.668;2022-09-23T03:40:02;7.40;;;4.43;;
19651;SDS011;9974;52.146;14.668;2022-09-23T03:42:39;6.10;;;4.13;;
19651;SDS011;9974;52.146;14.668;2022-09-23T03:45:07;7.67;;;4.30;;
19651;SDS011;9974;52.146;14.668;2022-09-23T03:47:41;9.90;;;4.47;;
19651;SDS011;9974;52.146;14.668;2022-09-23T03:50:06;7.20;;;4.40;;
19651;SDS011;9974;52.146;14.668;2022-09-23T03:52:32;6.53;;;4.40;;
19651;SDS011;9974;52.146;14.668;2022-09-23T03:54:58;7.03;;;4.10;;
19651;SDS011;9974;52.146;14.668;2022-09-23T03:57:25;7.07;;;4.20;;
19651;SDS011;9974;52.146;14.668;2022-09-23T03:59:51;10.67;;;5.57;;
19651;SDS011;9974;52.146;14.668;2022-09-23T04:02:17;7.30;;;4.83;;
19651;SDS011;9974;52.146;14.668;2022-09-23T04:04:44;9.83;;;5.50;;
19651;SDS011;9974;52.146;14.668;2022-09-23T04:07:10;6.90;;;4.73;;
19651;SDS011;9974;52.146;14.668;2022-09-23T04:09:37;9.13;;;5.23;;
19651;SDS011;9974;52.146;14.668;2022-09-23T04:12:03;8.63;;;5.30;;
19651;SDS011;9974;52.146;14.668;2022-09-23T04:14:29;9.63;;;5.73;;
19651;SDS011;9974;52.146;14.668;2022-09-23T04:16:55;9.03;;;5.23;;
19651;SDS011;9974;52.146;14.668;2022-09-23T04:19:21;11.93;;;5.80;;
19651;SDS011;9974;52.146;14.668;2022-09-23T04:21:46;10.53;;;5.20;;
19651;SDS011;9974;52.146;14.668;2022-09-23T04:24:12;24.70;;;5.37;;
19651;SDS011;9974;52.146;14.668;2022-09-23T04:26:39;14.93;;;6.00;;
19651;SDS011;9974;52.146;14.668;2022-09-23T04:29:05;31.83;;;5.27;;
19651;SDS011;9974;52.146;14.668;2022-09-23T04:31:32;35.93;;;6.77;;
19651;SDS011;9974;52.146;14.668;2022-09-23T04:33:58;23.93;;;4.90;;
19651;SDS011;9974;52.146;14.668;2022-09-23T04:36:24;28.30;;;6.10;;
19651;SDS011;9974;52.146;14.668;2022-09-23T04:38:50;28.53;;;6.13;;
19651;SDS011;9974;52.146;14.668;2022-09-23T04:41:16;44.93;;;5.63;;
19651;SDS011;9974;52.146;14.668;2022-09-23T04:43:42;79.53;;;7.13;;
19651;SDS011;9974;52.146;14.668;2022-09-23T04:46:09;49.93;;;6.93;;
19651;SDS011;9974;52.146;14.668;2022-09-23T04:48:37;40.37;;;6.13;;
19651;SDS011;9974;52.146;14.668;2022-09-23T04:51:06;45.73;;;6.63;;
19651;SDS011;9974;52.146;14.668;2022-09-23T04:53:40;32.17;;;5.83;;
19651;SDS011;9974;52.146;14.668;2022-09-23T04:56:10;17.57;;;6.43;;
19651;SDS011;9974;52.146;14.668;2022-09-23T04:58:38;21.33;;;5.93;;
19651;SDS011;9974;52.146;14.668;2022-09-23T05:01:19;16.87;;;5.30;;
19651;SDS011;9974;52.146;14.668;2022-09-23T05:03:48;30.60;;;5.67;;
19651;SDS011;9974;52.146;14.668;2022-09-23T05:06:15;81.30;;;8.50;;
19651;SDS011;9974;52.146;14.668;2022-09-23T05:08:45;53.23;;;8.20;;
19651;SDS011;9974;52.146;14.668;2022-09-23T05:11:13;61.80;;;7.77;;
19651;SDS011;9974;52.146;14.668;2022-09-23T05:13:39;62.50;;;7.93;;
19651;SDS011;9974;52.146;14.668;2022-09-23T05:16:06;77.27;;;8.37;;
19651;SDS011;9974;52.146;14.668;2022-09-23T05:18:36;62.07;;;8.10;;
19651;SDS011;9974;52.146;14.668;2022-09-23T05:21:10;70.40;;;8.07;;
19651;SDS011;9974;52.146;14.668;2022-09-23T05:23:39;52.33;;;7.77;;
19651;SDS011;9974;52.146;14.668;2022-09-23T05:26:07;47.57;;;7.70;;
19651;SDS011;9974;52.146;14.668;2022-09-23T05:28:35;67.47;;;8.37;;
19651;SDS011;9974;52.146;14.668;2022-09-23T05:31:03;26.13;;;7.10;;
19651;SDS011;9974;52.146;14.668;2022-09-23T05:33:40;39.73;;;7.73;;
19651;SDS011;9974;52.146;14.668;2022-09-23T05:36:07;31.20;;;6.47;;
19651;SDS011;9974;52.146;14.668;2022-09-23T05:38:33;44.40;;;6.33;;
19651;SDS011;9974;52.146;14.668;2022-09-23T05:41:01;27.63;;;5.90;;
19651;SDS011;9974;52.146;14.668;2022-09-23T05:43:33;33.37;;;6.20;;
19651;SDS011;9974;52.146;14.668;2022-09-23T05:46:06;21.67;;;5.50;;
19651;SDS011;9974;52.146;14.668;2022-09-23T05:48:36;7.73;;;5.53;;
19651;SDS011;9974;52.146;14.668;2022-09-23T05:51:03;8.00;;;5.70;;
19651;SDS011;9974;52.146;14.668;2022-09-23T05:53:36;10.27;;;6.77;;
19651;SDS011;9974;52.146;14.668;2022-09-23T05:56:03;13.07;;;6.80;;
19651;SDS011;9974;52.146;14.668;2022-09-23T05:58:30;13.27;;;6.10;;
19651;SDS011;9974;52.146;14.668;2022-09-23T06:00:56;7.90;;;6.07;;
19651;SDS011;9974;52.146;14.668;2022-09-23T06:03:23;6.93;;;5.03;;
19651;SDS011;9974;52.146;14.668;2022-09-23T06:05:53;9.80;;;6.40;;
19651;SDS011;9974;52.146;14.668;2022-09-23T06:08:19;9.67;;;5.60;;
19651;SDS011;9974;52.146;14.668;2022-09-23T06:10:47;8.70;;;6.17;;
19651;SDS011;9974;52.146;14.668;2022-09-23T06:13:13;10.83;;;5.80;;
19651;SDS011;9974;52.146;14.668;2022-09-23T06:15:42;12.17;;;5.70;;
19651;SDS011;9974;52.146;14.668;2022-09-23T06:18:08;17.67;;;6.70;;
19651;SDS011;9974;52.146;14.668;2022-09-23T06:20:35;10.40;;;5.77;;
19651;SDS011;9974;52.146;14.668;2022-09-23T06:23:05;13.57;;;6.03;;
19651;SDS011;9974;52.146;14.668;2022-09-23T06:25:33;10.57;;;6.73;;
19651;SDS011;9974;52.146;14.668;2022-09-23T06:28:00;17.23;;;6.83;;
19651;SDS011;9974;52.146;14.668;2022-09-23T06:30:26;9.70;;;6.40;;
19651;SDS011;9974;52.146;14.668;2022-09-23T06:32:53;10.23;;;7.10;;
19651;SDS011;9974;52.146;14.668;2022-09-23T06:35:22;9.43;;;6.30;;
19651;SDS011;9974;52.146;14.668;2022-09-23T06:37:51;7.70;;;5.80;;
19651;SDS011;9974;52.146;14.668;2022-09-23T06:40:18;8.17;;;5.90;;
19651;SDS011;9974;52.146;14.668;2022-09-23T06:42:45;9.07;;;6.23;;
19651;SDS011;9974;52.146;14.668;2022-09-23T06:45:11;8.17;;;6.00;;
19651;SDS011;9974;52.146;14.668;2022-09-23T06:47:38;8.53;;;5.53;;
19651;SDS011;9974;52.146;14.668;2022-09-23T06:50:05;11.47;;;7.10;;
19651;SDS011;9974;52.146;14.668;2022-09-23T06:52:32;8.40;;;6.43;;
19651;SDS011;9974;52.146;14.668;2022-09-23T06:54:59;10.17;;;6.17;;
19651;SDS011;9974;52.146;14.668;2022-09-23T06:57:28;9.37;;;6.17;;
19651;SDS011;9974;52.146;14.668;2022-09-23T06:59:57;9.43;;;6.47;;
19651;SDS011;9974;52.146;14.668;2022-09-23T07:02:26;9.87;;;6.83;;
19651;SDS011;9974;52.146;14.668;2022-09-23T07:04:52;10.17;;;6.87;;
19651;SDS011;9974;52.146;14.668;2022-09-23T07:07:20;11.73;;;8.13;;
19651;SDS011;9974;52.146;14.668;2022-09-23T07:09:47;10.87;;;8.20;;
19651;SDS011;9974;52.146;14.668;2022-09-23T07:12:12;13.60;;;8.13;;
19651;SDS011;9974;52.146;14.668;2022-09-23T07:14:38;12.17;;;7.40;;
19651;SDS011;9974;52.146;14.668;2022-09-23T07:17:04;13.53;;;9.50;;
19651;SDS011;9974;52.146;14.668;2022-09-23T07:19:30;11.87;;;8.17;;
19651;SDS011;9974;52.146;14.668;2022-09-23T07:21:59;13.40;;;8.53;;
19651;SDS011;9974;52.146;14.668;2022-09-23T07:24:25;11.60;;;7.83;;
19651;SDS011;9974;52.146;14.668;2022-09-23T07:26:51;17.63;;;8.23;;
19651;SDS011;9974;52.146;14.668;2022-09-23T07:29:19;11.83;;;7.87;;
19651;SDS011;9974;52.146;14.668;2022-09-23T07:31:45;11.93;;;7.73;;
19651;SDS011;9974;52.146;14.668;2022-09-23T07:34:11;16.73;;;8.93;;
19651;SDS011;9974;52.146;14.668;2022-09-23T07:36:37;14.73;;;8.13;;
19651;SDS011;9974;52.146;14.668;2022-09-23T07:39:08;12.33;;;7.30;;
19651;SDS011;9974;52.146;14.668;2022-09-23T07:41:35;11.87;;;7.63;;
19651;SDS011;9974;52.146;14.668;2022-09-23T07:44:02;11.02;;;7.57;;
19651;SDS011;9974;52.146;14.668;2022-09-23T07:46:30;13.10;;;7.88;;
19651;SDS011;9974;52.146;14.668;2022-09-23T07:48:57;11.45;;;6.88;;
19651;SDS011;9974;52.146;14.668;2022-09-23T07:51:25;10.82;;;6.85;;
19651;SDS011;9974;52.146;14.668;2022-09-23T07:53:59;10.63;;;7.90;;
19651;SDS011;9974;52.146;14.668;2022-09-23T07:56:26;9.45;;;7.13;;
19651;SDS011;9974;52.146;14.668;2022-09-23T07:58:53;13.18;;;7.57;;
19651;SDS011;9974;52.146;14.668;2022-09-23T08:01:32;10.60;;;6.80;;
19651;SDS011;9974;52.146;14.668;2022-09-23T08:04:01;10.07;;;7.00;;
19651;SDS011;9974;52.146;14.668;2022-09-23T08:06:40;10.13;;;6.50;;
19651;SDS011;9974;52.146;14.668;2022-09-23T08:09:07;12.45;;;6.50;;
19651;SDS011;9974;52.146;14.668;2022-09-23T08:11:34;9.85;;;6.72;;
19651;SDS011;9974;52.146;14.668;2022-09-23T08:14:03;10.63;;;6.15;;
19651;SDS011;9974;52.146;14.668;2022-09-23T08:16:28;10.02;;;6.30;;
19651;SDS011;9974;52.146;14.668;2022-09-23T08:18:54;9.65;;;6.30;;
19651;SDS011;9974;52.146;14.668;2022-09-23T08:21:21;8.18;;;5.78;;
19651;SDS011;9974;52.146;14.668;2022-09-23T08:23:47;10.07;;;5.68;;
19651;SDS011;9974;52.146;14.668;2022-09-23T08:26:13;9.73;;;6.60;;
19651;SDS011;9974;52.146;14.668;2022-09-23T08:28:38;10.15;;;6.35;;
19651;SDS011;9974;52.146;14.668;2022-09-23T08:31:07;13.05;;;5.50;;
19651;SDS011;9974;52.146;14.668;2022-09-23T08:33:33;9.43;;;5.78;;
19651;SDS011;9974;52.146;14.668;2022-09-23T08:35:59;8.13;;;5.05;;
19651;SDS011;9974;52.146;14.668;2022-09-23T08:38:27;7.45;;;5.40;;
19651;SDS011;9974;52.146;14.668;2022-09-23T08:40:54;9.75;;;5.63;;
19651;SDS011;9974;52.146;14.668;2022-09-23T08:43:35;8.85;;;5.05;;
19651;SDS011;9974;52.146;14.668;2022-09-23T08:46:02;9.27;;;5.00;;
19651;SDS011;9974;52.146;14.668;2022-09-23T08:48:35;7.97;;;5.20;;
19651;SDS011;9974;52.146;14.668;2022-09-23T08:51:10;10.02;;;5.40;;
19651;SDS011;9974;52.146;14.668;2022-09-23T08:53:39;8.43;;;5.47;;
19651;SDS011;9974;52.146;14.668;2022-09-23T08:56:10;6.63;;;4.63;;
19651;SDS011;9974;52.146;14.668;2022-09-23T09:06:56;7.28;;;4.25;;
19651;SDS011;9974;52.146;14.668;2022-09-23T09:09:35;9.40;;;4.00;;
19651;SDS011;9974;52.146;14.668;2022-09-23T09:12:16;6.70;;;4.07;;
19651;SDS011;9974;52.146;14.668;2022-09-23T09:20:50;6.72;;;4.53;;
19651;SDS011;9974;52.146;14.668;2022-09-23T09:23:53;5.40;;;3.80;;
19651;SDS011;9974;52.146;14.668;2022-09-23T09:28:51;7.70;;;3.92;;
19651;SDS011;9974;52.146;14.668;2022-09-23T09:31:33;6.70;;;3.75;;
19651;SDS011;9974;52.146;14.668;2022-09-23T09:37:13;6.05;;;3.95;;
19651;SDS011;9974;52.146;14.668;2022-09-23T09:39:44;5.53;;;3.60;;
19651;SDS011;9974;52.146;14.668;2022-09-23T09:42:32;8.45;;;3.55;;
19651;SDS011;9974;52.146;14.668;2022-09-23T09:45:22;6.03;;;3.45;;
19651;SDS011;9974;52.146;14.668;2022-09-23T09:50:47;5.93;;;3.25;;
19651;SDS011;9974;52.146;14.668;2022-09-23T09:56:06;4.88;;;3.38;;
19651;SDS011;9974;52.146;14.668;2022-09-23T10:01:38;6.18;;;3.15;;
19651;SDS011;9974;52.146;14.668;2022-09-23T10:04:05;4.70;;;2.83;;
19651;SDS011;9974;52.146;14.668;2022-09-23T10:09:34;4.95;;;2.80;;
19651;SDS011;9974;52.146;14.668;2022-09-23T10:12:12;5.15;;;2.63;;
19651;SDS011;9974;52.146;14.668;2022-09-23T10:14:42;4.30;;;3.10;;
19651;SDS011;9974;52.146;14.668;2022-09-23T10:17:19;5.18;;;3.03;;
19651;SDS011;9974;52.146;14.668;2022-09-23T10:19:48;3.55;;;2.65;;
19651;SDS011;9974;52.146;14.668;2022-09-23T10:22:37;4.25;;;2.67;;
19651;SDS011;9974;52.146;14.668;2022-09-23T10:25:07;4.20;;;2.80;;
19651;SDS011;9974;52.146;14.668;2022-09-23T10:27:41;5.50;;;3.05;;
19651;SDS011;9974;52.146;14.668;2022-09-23T10:30:23;4.25;;;2.45;;
19651;SDS011;9974;52.146;14.668;2022-09-23T10:32:51;3.53;;;2.13;;
19651;SDS011;9974;52.146;14.668;2022-09-23T10:35:22;4.65;;;2.25;;
19651;SDS011;9974;52.146;14.668;2022-09-23T10:37:51;4.55;;;2.50;;
19651;SDS011;9974;52.146;14.668;2022-09-23T10:40:26;4.47;;;2.63;;
19651;SDS011;9974;52.146;14.668;2022-09-23T10:46:19;4.35;;;2.40;;
19651;SDS011;9974;52.146;14.668;2022-09-23T10:49:28;4.72;;;2.53;;
19651;SDS011;9974;52.146;14.668;2022-09-23T10:52:28;5.40;;;3.00;;
19651;SDS011;9974;52.146;14.668;2022-09-23T10:55:16;3.97;;;2.42;;
19651;SDS011;9974;52.146;14.668;2022-09-23T10:58:04;5.85;;;1.92;;
19651;SDS011;9974;52.146;14.668;2022-09-23T11:04:54;3.20;;;1.95;;
19651;SDS011;9974;52.146;14.668;2022-09-23T11:15:43;2.70;;;1.60;;
19651;SDS011;9974;52.146;14.668;2022-09-23T11:18:22;2.35;;;1.38;;
19651;SDS011;9974;52.146;14.668;2022-09-23T11:21:21;2.25;;;1.20;;
19651;SDS011;9974;52.146;14.668;2022-09-23T11:24:10;5.13;;;2.00;;
19651;SDS011;9974;52.146;14.668;2022-09-23T11:30:06;2.85;;;1.67;;
19651;SDS011;9974;52.146;14.668;2022-09-23T11:32:47;2.83;;;1.65;;
19651;SDS011;9974;52.146;14.668;2022-09-23T11:35:27;2.17;;;1.40;;
19651;SDS011;9974;52.146;14.668;2022-09-23T11:38:16;2.30;;;1.30;;
19651;SDS011;9974;52.146;14.668;2022-09-23T11:44:01;2.50;;;1.13;;
19651;SDS011;9974;52.146;14.668;2022-09-23T11:46:37;2.80;;;1.30;;
19651;SDS011;9974;52.146;14.668;2022-09-23T11:49:20;3.10;;;1.42;;
19651;SDS011;9974;52.146;14.668;2022-09-23T11:52:21;4.78;;;1.42;;
19651;SDS011;9974;52.146;14.668;2022-09-23T11:55:59;4.22;;;1.33;;
19651;SDS011;9974;52.146;14.668;2022-09-23T11:58:15;2.13;;;1.15;;
19651;SDS011;9974;52.146;14.668;2022-09-23T12:00:50;2.13;;;1.02;;
19651;SDS011;9974;52.146;14.668;2022-09-23T12:03:31;1.15;;;0.80;;
19651;SDS011;9974;52.146;14.668;2022-09-23T12:06:12;2.33;;;0.95;;
19651;SDS011;9974;52.146;14.668;2022-09-23T12:08:42;3.10;;;1.20;;
19651;SDS011;9974;52.146;14.668;2022-09-23T12:11:25;1.88;;;0.90;;
19651;SDS011;9974;52.146;14.668;2022-09-23T12:23:15;0.73;;;0.60;;
19651;SDS011;9974;52.146;14.668;2022-09-23T12:26:02;1.33;;;0.68;;
19651;SDS011;9974;52.146;14.668;2022-09-23T12:28:36;0.82;;;0.50;;
19651;SDS011;9974;52.146;14.668;2022-09-23T12:31:07;2.78;;;0.98;;
19651;SDS011;9974;52.146;14.668;2022-09-23T12:33:37;0.98;;;0.70;;
19651;SDS011;9974;52.146;14.668;2022-09-23T12:36:05;3.78;;;1.13;;
19651;SDS011;9974;52.146;14.668;2022-09-23T12:38:37;2.35;;;1.10;;
19651;SDS011;9974;52.146;14.668;2022-09-23T12:41:30;1.95;;;0.98;;
19651;SDS011;9974;52.146;14.668;2022-09-23T12:46:47;2.13;;;1.02;;
19651;SDS011;9974;52.146;14.668;2022-09-23T12:49:44;1.17;;;0.80;;
19651;SDS011;9974;52.146;14.668;2022-09-23T12:54:40;1.35;;;0.75;;
19651;SDS011;9974;52.146;14.668;2022-09-23T13:02:38;3.95;;;1.00;;
19651;SDS011;9974;52.146;14.668;2022-09-23T13:05:31;2.17;;;1.30;;
19651;SDS011;9974;52.146;14.668;2022-09-23T13:08:16;2.20;;;1.10;;
19651;SDS011;9974;52.146;14.668;2022-09-23T13:10:47;6.13;;;2.50;;
19651;SDS011;9974;52.146;14.668;2022-09-23T13:13:21;5.20;;;2.75;;
19651;SDS011;9974;52.146;14.668;2022-09-23T13:15:56;2.28;;;1.30;;
19651;SDS011;9974;52.146;14.668;2022-09-23T13:21:59;2.45;;;0.85;;
19651;SDS011;9974;52.146;14.668;2022-09-23T13:24:42;2.13;;;0.98;;
19651;SDS011;9974;52.146;14.668;2022-09-23T13:27:12;1.27;;;0.80;;
19651;SDS011;9974;52.146;14.668;2022-09-23T13:30:04;1.52;;;0.77;;
19651;SDS011;9974;52.146;14.668;2022-09-23T13:32:46;1.67;;;0.75;;
19651;SDS011;9974;52.146;14.668;2022-09-23T13:35:39;2.45;;;0.77;;
19651;SDS011;9974;52.146;14.668;2022-09-23T13:38:20;3.20;;;1.13;;
19651;SDS011;9974;52.146;14.668;2022-09-23T13:41:37;0.90;;;0.70;;
19651;SDS011;9974;52.146;14.668;2022-09-23T13:43:42;1.30;;;0.80;;
19651;SDS011;9974;52.146;14.668;2022-09-23T13:46:12;1.45;;;0.90;;
19651;SDS011;9974;52.146;14.668;2022-09-23T13:48:43;2.92;;;0.90;;
19651;SDS011;9974;52.146;14.668;2022-09-23T13:51:15;1.42;;;1.05;;
19651;SDS011;9974;52.146;14.668;2022-09-23T13:53:58;1.40;;;0.80;;
19651;SDS011;9974;52.146;14.668;2022-09-23T13:56:27;1.48;;;0.85;;
19651;SDS011;9974;52.146;14.668;2022-09-23T14:01:49;1.67;;;0.98;;
19651;SDS011;9974;52.146;14.668;2022-09-23T14:04:26;1.67;;;1.20;;
19651;SDS011;9974;52.146;14.668;2022-09-23T14:06:52;6.07;;;1.42;;
19651;SDS011;9974;52.146;14.668;2022-09-23T14:09:18;4.45;;;0.93;;
19651;SDS011;9974;52.146;14.668;2022-09-23T14:11:51;1.98;;;0.93;;
19651;SDS011;9974;52.146;14.668;2022-09-23T14:14:18;1.73;;;0.93;;
19651;SDS011;9974;52.146;14.668;2022-09-23T14:16:47;1.58;;;0.95;;
19651;SDS011;9974;52.146;14.668;2022-09-23T14:19:16;0.93;;;0.80;;
19651;SDS011;9974;52.146;14.668;2022-09-23T14:21:49;1.33;;;0.90;;
19651;SDS011;9974;52.146;14.668;2022-09-23T14:26:58;1.95;;;0.90;;
19651;SDS011;9974;52.146;14.668;2022-09-23T14:29:51;1.38;;;0.90;;
19651;SDS011;9974;52.146;14.668;2022-09-23T14:32:20;1.80;;;0.80;;
19651;SDS011;9974;52.146;14.668;2022-09-23T14:37:28;1.95;;;0.98;;
19651;SDS011;9974;52.146;14.668;2022-09-23T14:40:24;1.38;;;1.00;;
19651;SDS011;9974;52.146;14.668;2022-09-23T14:45:49;0.60;;;0.60;;
19651;SDS011;9974;52.146;14.668;2022-09-23T14:48:24;2.45;;;1.17;;
19651;SDS011;9974;52.146;14.668;2022-09-23T14:50:56;1.45;;;1.00;;
19651;SDS011;9974;52.146;14.668;2022-09-23T14:53:41;1.83;;;1.17;;
19651;SDS011;9974;52.146;14.668;2022-09-23T14:56:10;3.55;;;1.02;;
19651;SDS011;9974;52.146;14.668;2022-09-23T14:58:53;2.13;;;1.30;;
19651;SDS011;9974;52.146;14.668;2022-09-23T15:04:09;1.88;;;1.10;;
19651;SDS011;9974;52.146;14.668;2022-09-23T15:06:54;5.90;;;3.45;;
19651;SDS011;9974;52.146;14.668;2022-09-23T15:09:26;1.73;;;1.10;;
19651;SDS011;9974;52.146;14.668;2022-09-23T15:12:06;1.05;;;0.80;;
19651;SDS011;9974;52.146;14.668;2022-09-23T15:14:40;1.67;;;0.82;;
19651;SDS011;9974;52.146;14.668;2022-09-23T15:17:32;1.38;;;0.85;;
19651;SDS011;9974;52.146;14.668;2022-09-23T15:19:59;1.40;;;0.88;;
19651;SDS011;9974;52.146;14.668;2022-09-23T15:22:29;1.80;;;0.80;;
19651;SDS011;9974;52.146;14.668;2022-09-23T15:28:00;2.45;;;1.30;;
19651;SDS011;9974;52.146;14.668;2022-09-23T15:30:30;3.42;;;1.08;;
19651;SDS011;9974;52.146;14.668;2022-09-23T15:32:58;3.10;;;1.10;;
19651;SDS011;9974;52.146;14.668;2022-09-23T15:35:24;1.75;;;1.02;;
19651;SDS011;9974;52.146;14.668;2022-09-23T15:37:50;5.20;;;1.58;;
19651;SDS011;9974;52.146;14.668;2022-09-23T15:40:32;2.55;;;1.30;;
19651;SDS011;9974;52.146;14.668;2022-09-23T15:43:08;4.25;;;1.55;;
19651;SDS011;9974;52.146;14.668;2022-09-23T15:45:42;1.65;;;1.23;;
19651;SDS011;9974;52.146;14.668;2022-09-23T15:48:16;2.80;;;1.48;;
19651;SDS011;9974;52.146;14.668;2022-09-23T15:50:49;1.52;;;1.17;;
19651;SDS011;9974;52.146;14.668;2022-09-23T15:53:21;1.92;;;1.30;;
19651;SDS011;9974;52.146;14.668;2022-09-23T15:55:50;2.72;;;1.70;;
19651;SDS011;9974;52.146;14.668;2022-09-23T15:58:20;5.82;;;3.00;;
19651;SDS011;9974;52.146;14.668;2022-09-23T16:00:47;3.47;;;2.05;;
19651;SDS011;9974;52.146;14.668;2022-09-23T16:03:17;6.20;;;2.67;;
19651;SDS011;9974;52.146;14.668;2022-09-23T16:05:47;5.38;;;2.45;;
19651;SDS011;9974;52.146;14.668;2022-09-23T16:08:14;2.85;;;2.08;;
19651;SDS011;9974;52.146;14.668;2022-09-23T16:10:42;4.57;;;2.85;;
19651;SDS011;9974;52.146;14.668;2022-09-23T16:13:10;3.88;;;1.90;;
19651;SDS011;9974;52.146;14.668;2022-09-23T16:15:37;2.47;;;1.23;;
19651;SDS011;9974;52.146;14.668;2022-09-23T16:18:04;4.07;;;2.05;;
19651;SDS011;9974;52.146;14.668;2022-09-23T16:20:32;3.95;;;1.52;;
19651;SDS011;9974;52.146;14.668;2022-09-23T16:23:05;2.58;;;1.60;;
19651;SDS011;9974;52.146;14.668;2022-09-23T16:25:57;2.65;;;1.75;;
19651;SDS011;9974;52.146;14.668;2022-09-23T16:28:57;3.50;;;2.30;;
19651;SDS011;9974;52.146;14.668;2022-09-23T16:31:24;5.00;;;2.78;;
19651;SDS011;9974;52.146;14.668;2022-09-23T16:33:50;5.40;;;2.72;;
19651;SDS011;9974;52.146;14.668;2022-09-23T16:38:53;5.07;;;2.63;;
19651;SDS011;9974;52.146;14.668;2022-09-23T16:41:22;4.68;;;2.85;;
19651;SDS011;9974;52.146;14.668;2022-09-23T16:43:49;4.72;;;2.55;;
19651;SDS011;9974;52.146;14.668;2022-09-23T16:46:16;4.07;;;2.72;;
19651;SDS011;9974;52.146;14.668;2022-09-23T16:48:43;5.10;;;2.70;;
19651;SDS011;9974;52.146;14.668;2022-09-23T16:51:16;4.15;;;2.35;;
19651;SDS011;9974;52.146;14.668;2022-09-23T16:53:47;4.43;;;2.33;;
19651;SDS011;9974;52.146;14.668;2022-09-23T16:56:15;3.88;;;2.63;;
19651;SDS011;9974;52.146;14.668;2022-09-23T16:58:44;2.95;;;2.00;;
19651;SDS011;9974;52.146;14.668;2022-09-23T17:01:22;6.57;;;2.95;;
19651;SDS011;9974;52.146;14.668;2022-09-23T17:04:09;2.85;;;2.33;;
19651;SDS011;9974;52.146;14.668;2022-09-23T17:06:43;6.20;;;2.88;;
19651;SDS011;9974;52.146;14.668;2022-09-23T17:09:09;3.97;;;2.75;;
19651;SDS011;9974;52.146;14.668;2022-09-23T17:11:35;6.40;;;3.10;;
19651;SDS011;9974;52.146;14.668;2022-09-23T17:14:02;4.38;;;2.90;;
19651;SDS011;9974;52.146;14.668;2022-09-23T17:16:29;4.10;;;2.53;;
19651;SDS011;9974;52.146;14.668;2022-09-23T17:18:56;11.77;;;2.92;;
19651;SDS011;9974;52.146;14.668;2022-09-23T17:21:23;4.13;;;2.50;;
19651;SDS011;9974;52.146;14.668;2022-09-23T17:23:55;5.55;;;4.03;;